createdAt,value
2018-11-02T00:00:29.654Z,532
2018-11-02T00:01:36.780Z,532
2018-11-02T00:02:43.705Z,533
2018-11-02T00:03:50.909Z,535
2018-11-02T00:04:58.112Z,535
2018-11-02T00:06:05.434Z,535
2018-11-02T00:07:12.052Z,537
2018-11-02T00:08:18.483Z,538
2018-11-02T00:09:25.673Z,539
2018-11-02T00:10:32.326Z,538
2018-11-02T00:11:39.555Z,539
2018-11-02T00:12:46.515Z,540
2018-11-02T00:13:53.191Z,540
2018-11-02T00:15:00.385Z,541
2018-11-02T00:16:07.583Z,541
2018-11-02T00:17:14.506Z,541
2018-11-02T00:18:21.708Z,540
2018-11-02T00:19:28.936Z,543
2018-11-02T00:20:36.140Z,543
2018-11-02T00:21:43.343Z,544
2018-11-02T00:22:50.545Z,545
2018-11-02T00:23:57.470Z,546
2018-11-02T00:25:04.667Z,546
2018-11-02T00:26:11.866Z,547
2018-11-02T00:27:19.085Z,547
2018-11-02T00:28:26.000Z,549
2018-11-02T00:29:32.940Z,549
2018-11-02T00:30:39.866Z,549
2018-11-02T00:31:46.845Z,549
2018-11-02T00:32:53.504Z,549
2018-11-02T00:34:00.715Z,549
2018-11-02T00:35:07.909Z,550
2018-11-02T00:36:14.302Z,551
2018-11-02T00:37:21.226Z,551
2018-11-02T00:38:28.185Z,552
2018-11-02T00:39:35.103Z,551
2018-11-02T00:40:42.295Z,553
2018-11-02T00:41:49.219Z,553
2018-11-02T00:42:55.592Z,553
2018-11-02T00:44:03.205Z,553
2018-11-02T00:45:10.705Z,553
2018-11-02T00:46:17.636Z,555
2018-11-02T00:47:24.844Z,554
2018-11-02T00:48:31.765Z,555
2018-11-02T00:49:38.692Z,555
2018-11-02T00:50:45.892Z,556
2018-11-02T00:51:52.813Z,555
2018-11-02T00:52:59.473Z,557
2018-11-02T00:54:06.671Z,558
2018-11-02T00:55:13.594Z,558
2018-11-02T00:56:20.791Z,559
2018-11-02T00:57:28.039Z,558
2018-11-02T00:58:35.263Z,558
2018-11-02T00:59:43.056Z,559
2018-11-02T01:00:50.011Z,559
2018-11-02T01:01:58.290Z,560
2018-11-02T01:03:05.858Z,560
2018-11-02T01:04:12.976Z,561
2018-11-02T01:05:20.262Z,561
2018-11-02T01:06:27.644Z,561
2018-11-02T01:07:34.876Z,560
2018-11-02T01:08:41.793Z,561
2018-11-02T01:09:48.725Z,563
2018-11-02T01:10:55.377Z,563
2018-11-02T01:12:02.580Z,564
2018-11-02T01:13:09.505Z,565
2018-11-02T01:14:16.158Z,565
2018-11-02T01:15:22.802Z,566
2018-11-02T01:16:30.126Z,566
2018-11-02T01:17:37.157Z,566
2018-11-02T01:18:44.082Z,565
2018-11-02T01:19:51.274Z,566
2018-11-02T01:20:57.921Z,566
2018-11-02T01:22:04.570Z,566
2018-11-02T01:23:11.494Z,567
2018-11-02T01:24:18.698Z,568
2018-11-02T01:25:25.622Z,569
2018-11-02T01:26:32.273Z,569
2018-11-02T01:27:39.208Z,569
2018-11-02T01:28:45.864Z,570
2018-11-02T01:29:52.789Z,570
2018-11-02T01:30:59.997Z,570
2018-11-02T01:32:06.935Z,570
2018-11-02T01:33:14.133Z,572
2018-11-02T01:34:20.798Z,572
2018-11-02T01:35:27.995Z,573
2018-11-02T01:36:34.918Z,572
2018-11-02T01:37:41.870Z,572
2018-11-02T01:38:49.070Z,573
2018-11-02T01:39:56.072Z,574
2018-11-02T01:41:02.722Z,574
2018-11-02T01:42:09.920Z,574
2018-11-02T01:43:16.858Z,574
2018-11-02T01:44:23.786Z,574
2018-11-02T01:45:30.442Z,575
2018-11-02T01:46:37.638Z,575
2018-11-02T01:47:44.559Z,575
2018-11-02T01:48:51.751Z,576
2018-11-02T01:49:58.949Z,575
2018-11-02T01:51:05.881Z,576
2018-11-02T01:52:12.534Z,577
2018-11-02T01:53:19.461Z,577
2018-11-02T01:54:26.404Z,576
2018-11-02T01:55:33.322Z,578
2018-11-02T01:56:40.519Z,577
2018-11-02T01:57:47.453Z,578
2018-11-02T01:58:54.384Z,579
2018-11-02T02:00:01.320Z,578
2018-11-02T02:01:07.949Z,580
2018-11-02T02:02:14.594Z,580
2018-11-02T02:03:20.969Z,581
2018-11-02T02:04:28.167Z,581
2018-11-02T02:05:35.093Z,581
2018-11-02T02:06:42.020Z,582
2018-11-02T02:07:48.949Z,581
2018-11-02T02:08:55.872Z,581
2018-11-02T02:10:02.797Z,581
2018-11-02T02:11:09.996Z,582
2018-11-02T02:12:16.949Z,582
2018-11-02T02:13:24.723Z,582
2018-11-02T02:14:31.935Z,583
2018-11-02T02:15:38.581Z,583
2018-11-02T02:16:45.781Z,584
2018-11-02T02:17:52.998Z,583
2018-11-02T02:19:00.196Z,584
2018-11-02T02:20:06.850Z,585
2018-11-02T02:21:13.499Z,585
2018-11-02T02:22:20.145Z,584
2018-11-02T02:23:27.344Z,584
2018-11-02T02:24:34.534Z,586
2018-11-02T02:25:41.475Z,584
2018-11-02T02:26:48.681Z,586
2018-11-02T02:27:55.601Z,585
2018-11-02T02:29:02.524Z,586
2018-11-02T02:30:09.730Z,587
2018-11-02T02:31:16.654Z,588
2018-11-02T02:32:23.574Z,587
2018-11-02T02:33:30.768Z,587
2018-11-02T02:34:37.691Z,587
2018-11-02T02:35:44.660Z,586
2018-11-02T02:36:51.581Z,587
2018-11-02T02:37:58.509Z,589
2018-11-02T02:39:05.702Z,588
2018-11-02T02:40:12.903Z,589
2018-11-02T02:41:20.114Z,589
2018-11-02T02:42:27.023Z,590
2018-11-02T02:43:33.955Z,590
2018-11-02T02:44:41.161Z,590
2018-11-02T02:45:48.360Z,590
2018-11-02T02:46:55.294Z,590
2018-11-02T02:48:02.213Z,591
2018-11-02T02:49:08.858Z,589
2018-11-02T02:50:15.781Z,590
2018-11-02T02:51:22.603Z,589
2018-11-02T02:52:29.796Z,591
2018-11-02T02:53:37.008Z,591
2018-11-02T02:54:43.656Z,591
2018-11-02T02:55:50.631Z,591
2018-11-02T02:56:57.513Z,591
2018-11-02T02:58:04.712Z,592
2018-11-02T02:59:11.639Z,591
2018-11-02T03:00:18.835Z,592
2018-11-02T03:01:26.037Z,592
2018-11-02T03:02:32.961Z,592
2018-11-02T03:03:39.622Z,592
2018-11-02T03:04:46.816Z,592
2018-11-02T03:05:54.020Z,592
2018-11-02T03:07:01.224Z,593
2018-11-02T03:08:08.146Z,592
2018-11-02T03:09:15.103Z,591
2018-11-02T03:10:21.938Z,592
2018-11-02T03:11:29.347Z,593
2018-11-02T03:12:36.254Z,593
2018-11-02T03:13:43.450Z,593
2018-11-02T03:14:50.647Z,594
2018-11-02T03:15:57.566Z,593
2018-11-02T03:17:04.762Z,592
2018-11-02T03:18:12.152Z,592
2018-11-02T03:19:19.393Z,592
2018-11-02T03:20:26.620Z,593
2018-11-02T03:21:33.819Z,594
2018-11-02T03:22:41.042Z,595
2018-11-02T03:23:48.453Z,594
2018-11-02T03:24:55.647Z,593
2018-11-02T03:26:02.888Z,593
2018-11-02T03:27:10.088Z,593
2018-11-02T03:28:17.233Z,593
2018-11-02T03:29:25.460Z,593
2018-11-02T03:30:33.670Z,593
2018-11-02T03:31:41.324Z,594
2018-11-02T03:32:49.224Z,593
2018-11-02T03:33:56.328Z,593
2018-11-02T03:35:03.529Z,593
2018-11-02T03:36:10.447Z,593
2018-11-02T03:37:17.647Z,593
2018-11-02T03:38:24.844Z,593
2018-11-02T03:39:32.042Z,594
2018-11-02T03:40:39.242Z,593
2018-11-02T03:41:46.167Z,594
2018-11-02T03:42:53.092Z,594
2018-11-02T03:44:00.023Z,593
2018-11-02T03:45:07.219Z,592
2018-11-02T03:46:14.153Z,594
2018-11-02T03:47:20.518Z,594
2018-11-02T03:48:27.657Z,593
2018-11-02T03:49:34.585Z,593
2018-11-02T03:50:42.328Z,595
2018-11-02T03:51:49.257Z,593
2018-11-02T03:52:56.136Z,593
2018-11-02T03:54:03.063Z,594
2018-11-02T03:55:09.989Z,592
2018-11-02T03:56:16.913Z,593
2018-11-02T03:57:24.113Z,594
2018-11-02T03:58:31.305Z,594
2018-11-02T03:59:38.230Z,593
2018-11-02T04:00:46.829Z,594
2018-11-02T04:01:53.745Z,593
2018-11-02T04:03:00.671Z,593
2018-11-02T04:04:07.599Z,594
2018-11-02T04:05:14.796Z,594
2018-11-02T04:06:21.734Z,592
2018-11-02T04:07:28.658Z,592
2018-11-02T04:08:35.028Z,592
2018-11-02T04:09:42.500Z,592
2018-11-02T04:10:49.444Z,592
2018-11-02T04:11:56.085Z,592
2018-11-02T04:13:02.806Z,593
2018-11-02T04:14:10.001Z,593
2018-11-02T04:15:16.662Z,593
2018-11-02T04:16:23.854Z,593
2018-11-02T04:17:31.059Z,593
2018-11-02T04:18:37.989Z,593
2018-11-02T04:19:44.914Z,592
2018-11-02T04:20:51.833Z,593
2018-11-02T04:21:59.036Z,591
2018-11-02T04:23:05.689Z,591
2018-11-02T04:24:12.886Z,591
2018-11-02T04:25:20.094Z,590
2018-11-02T04:26:26.745Z,590
2018-11-02T04:27:33.960Z,590
2018-11-02T04:28:41.156Z,588
2018-11-02T04:29:48.379Z,588
2018-11-02T04:30:55.652Z,589
2018-11-02T04:32:03.059Z,589
2018-11-02T04:33:09.721Z,590
2018-11-02T04:34:16.918Z,590
2018-11-02T04:35:23.860Z,589
2018-11-02T04:36:30.783Z,590
2018-11-02T04:37:37.772Z,591
2018-11-02T04:38:44.698Z,589
2018-11-02T04:39:51.362Z,589
2018-11-02T04:40:58.282Z,588
2018-11-02T04:42:05.204Z,588
2018-11-02T04:43:12.173Z,587
2018-11-02T04:44:19.357Z,588
2018-11-02T04:45:26.560Z,587
2018-11-02T04:46:33.205Z,587
2018-11-02T04:47:40.132Z,588
2018-11-02T04:48:47.338Z,586
2018-11-02T04:49:54.265Z,586
2018-11-02T04:51:01.500Z,585
2018-11-02T04:52:08.802Z,586
2018-11-02T04:53:16.001Z,585
2018-11-02T04:54:23.200Z,586
2018-11-02T04:55:30.132Z,585
2018-11-02T04:56:37.337Z,584
2018-11-02T04:57:44.557Z,583
2018-11-02T04:58:51.494Z,581
2018-11-02T04:59:58.694Z,581
2018-11-02T05:01:05.900Z,582
2018-11-02T05:02:12.824Z,580
2018-11-02T05:03:19.472Z,581
2018-11-02T05:04:26.482Z,581
2018-11-02T05:05:33.685Z,580
2018-11-02T05:06:40.909Z,581
2018-11-02T05:07:48.103Z,578
2018-11-02T05:08:55.301Z,579
2018-11-02T05:10:02.631Z,577
2018-11-02T05:11:09.818Z,576
2018-11-02T05:12:16.755Z,576
2018-11-02T05:13:23.677Z,575
2018-11-02T05:14:30.608Z,574
2018-11-02T05:15:37.263Z,574
2018-11-02T05:16:44.186Z,574
2018-11-02T05:17:51.104Z,574
2018-11-02T05:18:57.752Z,574
2018-11-02T05:20:04.669Z,573
2018-11-02T05:21:12.032Z,572
2018-11-02T05:22:19.388Z,571
2018-11-02T05:23:26.315Z,569
2018-11-02T05:24:33.238Z,569
2018-11-02T05:25:40.438Z,568
2018-11-02T05:26:47.651Z,568
2018-11-02T05:27:54.836Z,568
2018-11-02T05:29:02.030Z,568
2018-11-02T05:30:08.958Z,566
2018-11-02T05:31:16.150Z,567
2018-11-02T05:32:23.078Z,565
2018-11-02T05:33:30.011Z,565
2018-11-02T05:34:37.209Z,564
2018-11-02T05:35:44.133Z,563
2018-11-02T05:36:50.798Z,562
2018-11-02T05:37:57.713Z,561
2018-11-02T05:39:04.689Z,560
2018-11-02T05:40:11.911Z,560
2018-11-02T05:41:18.826Z,558
2018-11-02T05:42:26.040Z,557
2018-11-02T05:43:33.229Z,557
2018-11-02T05:44:40.151Z,557
2018-11-02T05:45:48.058Z,555
2018-11-02T05:46:55.231Z,555
2018-11-02T05:48:02.936Z,554
2018-11-02T05:49:10.692Z,552
2018-11-02T05:50:18.477Z,553
2018-11-02T05:51:25.588Z,552
2018-11-02T05:52:32.783Z,551
2018-11-02T05:53:39.713Z,550
2018-11-02T05:54:46.367Z,549
2018-11-02T05:55:52.455Z,548
2018-11-02T05:56:59.373Z,546
2018-11-02T05:58:06.321Z,546
2018-11-02T05:59:13.261Z,546
2018-11-02T06:00:20.465Z,544
2018-11-02T06:01:27.594Z,543
2018-11-02T06:02:34.597Z,542
2018-11-02T06:03:41.278Z,542
2018-11-02T06:04:48.473Z,540
2018-11-02T06:05:55.396Z,539
2018-11-02T06:07:02.324Z,537
2018-11-02T06:08:09.261Z,535
2018-11-02T06:09:16.183Z,533
2018-11-02T06:10:23.397Z,533
2018-11-02T06:11:30.594Z,531
2018-11-02T06:12:37.798Z,530
2018-11-02T06:13:44.999Z,530
2018-11-02T06:14:51.413Z,529
2018-11-02T06:15:58.328Z,527
2018-11-02T06:17:05.580Z,526
2018-11-02T06:18:12.801Z,526
2018-11-02T06:19:19.998Z,524
2018-11-02T06:20:26.931Z,524
2018-11-02T06:21:33.849Z,523
2018-11-02T06:22:40.773Z,522
2018-11-02T06:23:47.982Z,520
2018-11-02T06:24:54.903Z,520
2018-11-02T06:26:01.836Z,518
2018-11-02T06:27:08.764Z,516
2018-11-02T06:28:16.015Z,516
2018-11-02T06:29:22.670Z,516
2018-11-02T06:30:29.848Z,514
2018-11-02T06:31:36.959Z,514
2018-11-02T06:32:44.677Z,513
2018-11-02T06:33:51.795Z,513
2018-11-02T06:34:58.730Z,512
2018-11-02T06:36:05.661Z,511
2018-11-02T06:37:12.865Z,511
2018-11-02T06:38:19.787Z,510
2018-11-02T06:39:26.987Z,509
2018-11-02T06:40:33.634Z,507
2018-11-02T06:41:40.920Z,507
2018-11-02T06:42:48.121Z,506
2018-11-02T06:43:55.054Z,508
2018-11-02T06:45:02.466Z,506
2018-11-02T06:46:09.986Z,505
2018-11-02T06:47:17.171Z,504
2018-11-02T06:48:24.366Z,504
2018-11-02T06:49:31.573Z,503
2018-11-02T06:50:38.291Z,503
2018-11-02T06:51:45.548Z,503
2018-11-02T06:52:52.592Z,500
2018-11-02T06:53:59.781Z,499
2018-11-02T06:55:06.708Z,499
2018-11-02T06:56:13.350Z,499
2018-11-02T06:57:20.554Z,499
2018-11-02T06:58:27.482Z,499
2018-11-02T06:59:35.422Z,499
2018-11-02T07:00:42.910Z,498
2018-11-02T07:01:49.849Z,497
2018-11-02T07:02:57.045Z,497
2018-11-02T07:04:04.251Z,495
2018-11-02T07:05:11.166Z,494
2018-11-02T07:06:18.392Z,493
2018-11-02T07:07:26.353Z,493
2018-11-02T07:08:34.378Z,493
2018-11-02T07:09:41.115Z,492
2018-11-02T07:10:48.330Z,491
2018-11-02T07:11:55.523Z,491
2018-11-02T07:13:02.722Z,491
2018-11-02T07:14:09.668Z,490
2018-11-02T07:15:16.600Z,490
2018-11-02T07:16:23.538Z,489
2018-11-02T07:17:30.731Z,488
2018-11-02T07:18:37.384Z,488
2018-11-02T07:19:44.031Z,488
2018-11-02T07:20:50.995Z,487
2018-11-02T07:21:58.222Z,485
2018-11-02T07:23:05.155Z,483
2018-11-02T07:24:12.363Z,483
2018-11-02T07:25:20.059Z,483
2018-11-02T07:26:27.218Z,482
2018-11-02T07:27:34.163Z,481
2018-11-02T07:28:41.364Z,482
2018-11-02T07:29:48.282Z,481
2018-11-02T07:30:55.480Z,480
2018-11-02T07:32:02.679Z,479
2018-11-02T07:33:09.879Z,478
2018-11-02T07:34:16.644Z,477
2018-11-02T07:35:23.770Z,476
2018-11-02T07:36:30.974Z,476
2018-11-02T07:37:38.467Z,474
2018-11-02T07:38:46.045Z,471
2018-11-02T07:39:53.247Z,471
2018-11-02T07:41:00.826Z,469
2018-11-02T07:42:07.807Z,469
2018-11-02T07:43:14.999Z,469
2018-11-02T07:44:22.273Z,468
2018-11-02T07:45:29.189Z,468
2018-11-02T07:46:36.389Z,467
2018-11-02T07:47:43.473Z,466
2018-11-02T07:48:50.519Z,467
2018-11-02T07:49:57.168Z,466
2018-11-02T07:51:04.392Z,466
2018-11-02T07:52:11.315Z,465
2018-11-02T07:53:18.261Z,465
2018-11-02T07:54:25.469Z,465
2018-11-02T07:55:32.711Z,464
2018-11-02T07:56:39.922Z,464
2018-11-02T07:57:47.199Z,462
2018-11-02T07:58:54.416Z,461
2018-11-02T08:00:01.617Z,459
2018-11-02T08:01:08.829Z,460
2018-11-02T08:02:16.052Z,459
2018-11-02T08:03:22.701Z,458
2018-11-02T08:04:29.664Z,458
2018-11-02T08:05:36.595Z,456
2018-11-02T08:06:43.526Z,456
2018-11-02T08:07:50.958Z,457
2018-11-02T08:08:57.862Z,457
2018-11-02T08:10:04.528Z,456
2018-11-02T08:11:11.477Z,457
2018-11-02T08:12:18.674Z,454
2018-11-02T08:13:25.872Z,455
2018-11-02T08:14:33.067Z,454
2018-11-02T08:15:40.266Z,454
2018-11-02T08:16:47.668Z,454
2018-11-02T08:17:54.871Z,454
2018-11-02T08:19:02.192Z,453
2018-11-02T08:20:09.602Z,454
2018-11-02T08:21:16.801Z,454
2018-11-02T08:22:24.003Z,454
2018-11-02T08:23:30.930Z,453
2018-11-02T08:24:38.340Z,452
2018-11-02T08:25:45.720Z,453
2018-11-02T08:26:52.903Z,453
2018-11-02T08:27:59.826Z,453
2018-11-02T08:29:06.747Z,452
2018-11-02T08:30:13.677Z,451
2018-11-02T08:31:20.880Z,451
2018-11-02T08:32:27.539Z,451
2018-11-02T08:33:34.474Z,452
2018-11-02T08:34:41.401Z,452
2018-11-02T08:35:48.604Z,451
2018-11-02T08:36:55.808Z,450
2018-11-02T08:38:03.005Z,450
2018-11-02T08:39:09.940Z,450
2018-11-02T08:40:16.863Z,449
2018-11-02T08:41:23.789Z,449
2018-11-02T08:42:30.439Z,448
2018-11-02T08:43:37.095Z,447
2018-11-02T08:44:44.316Z,448
2018-11-02T08:45:51.525Z,445
2018-11-02T08:46:58.731Z,446
2018-11-02T08:48:05.377Z,446
2018-11-02T08:49:12.313Z,447
2018-11-02T08:50:19.248Z,445
2018-11-02T08:51:26.486Z,445
2018-11-02T08:52:33.150Z,446
2018-11-02T08:53:40.348Z,445
2018-11-02T08:54:47.275Z,445
2018-11-02T08:55:54.202Z,445
2018-11-02T08:57:01.404Z,443
2018-11-02T08:58:09.771Z,443
2018-11-02T08:59:17.709Z,444
2018-11-02T09:00:25.139Z,442
2018-11-02T09:01:32.338Z,441
2018-11-02T09:02:39.273Z,441
2018-11-02T09:03:46.197Z,439
2018-11-02T09:04:53.453Z,440
2018-11-02T09:06:00.727Z,439
2018-11-02T09:07:07.652Z,440
2018-11-02T09:08:14.887Z,441
2018-11-02T09:09:21.816Z,441
2018-11-02T09:10:29.019Z,442
2018-11-02T09:11:35.673Z,443
2018-11-02T09:12:42.878Z,445
2018-11-02T09:14:04.453Z,444
2018-11-02T09:15:11.655Z,445
2018-11-02T09:16:18.595Z,442
2018-11-02T09:17:25.788Z,444
2018-11-02T09:18:33.332Z,444
2018-11-02T09:19:40.573Z,445
2018-11-02T09:20:47.769Z,444
2018-11-02T09:21:55.012Z,445
2018-11-02T09:23:01.940Z,446
2018-11-02T09:24:08.594Z,446
2018-11-02T09:25:15.522Z,446
2018-11-02T09:26:21.904Z,447
2018-11-02T09:27:29.322Z,448
2018-11-02T09:28:36.238Z,449
2018-11-02T09:29:43.462Z,449
2018-11-02T09:30:49.835Z,449
2018-11-02T09:31:57.040Z,450
2018-11-02T09:33:04.300Z,449
2018-11-02T09:34:11.222Z,448
2018-11-02T09:35:18.169Z,448
2018-11-02T09:36:25.407Z,448
2018-11-02T09:37:32.606Z,449
2018-11-02T09:38:39.819Z,449
2018-11-02T09:39:47.020Z,448
2018-11-02T09:40:54.218Z,448
2018-11-02T09:42:01.158Z,449
2018-11-02T09:43:08.085Z,450
2018-11-02T09:44:15.300Z,450
2018-11-02T09:45:22.153Z,450
2018-11-02T09:46:29.362Z,450
2018-11-02T09:47:36.591Z,451
2018-11-02T09:48:43.250Z,448
2018-11-02T09:49:49.907Z,444
2018-11-02T09:50:56.313Z,441
2018-11-02T09:52:03.863Z,439
2018-11-02T09:53:12.268Z,438
2018-11-02T09:54:20.573Z,437
2018-11-02T09:55:28.006Z,439
2018-11-02T09:56:35.492Z,438
2018-11-02T09:57:42.899Z,440
2018-11-02T09:58:49.971Z,439
2018-11-02T09:59:57.171Z,438
2018-11-02T10:01:05.084Z,439
2018-11-02T10:02:12.579Z,437
2018-11-02T10:03:19.353Z,438
2018-11-02T10:04:26.278Z,437
2018-11-02T10:05:33.516Z,436
2018-11-02T10:06:40.728Z,435
2018-11-02T10:07:47.933Z,437
2018-11-02T10:08:55.169Z,436
2018-11-02T10:10:02.148Z,436
2018-11-02T10:11:09.356Z,432
2018-11-02T10:12:16.568Z,430
2018-11-02T10:13:23.819Z,432
2018-11-02T10:14:31.026Z,430
2018-11-02T10:15:38.238Z,431
2018-11-02T10:16:45.507Z,431
2018-11-02T10:17:52.716Z,435
2018-11-02T10:18:59.648Z,435
2018-11-02T10:20:06.858Z,432
2018-11-02T10:21:13.790Z,432
2018-11-02T10:22:20.726Z,432
2018-11-02T10:23:27.948Z,432
2018-11-02T10:24:34.879Z,431
2018-11-02T10:25:42.082Z,431
2018-11-02T10:26:49.025Z,429
2018-11-02T10:27:56.106Z,428
2018-11-02T10:29:03.095Z,428
2018-11-02T10:30:10.317Z,427
2018-11-02T10:31:17.245Z,429
2018-11-02T10:32:24.169Z,429
2018-11-02T10:33:31.388Z,427
2018-11-02T10:34:38.597Z,428
2018-11-02T10:35:46.072Z,432
2018-11-02T10:36:53.414Z,430
2018-11-02T10:38:00.611Z,428
2018-11-02T10:39:07.546Z,427
2018-11-02T10:40:14.198Z,427
2018-11-02T10:41:21.403Z,426
2018-11-02T10:42:28.336Z,426
2018-11-02T10:43:35.265Z,426
2018-11-02T10:44:42.593Z,428
2018-11-02T10:45:49.846Z,431
2018-11-02T10:46:56.781Z,430
2018-11-02T10:48:03.711Z,428
2018-11-02T10:49:10.745Z,426
2018-11-02T10:50:17.601Z,421
2018-11-02T10:51:24.264Z,420
2018-11-02T10:52:30.922Z,422
2018-11-02T10:53:37.859Z,423
2018-11-02T10:54:45.279Z,423
2018-11-02T10:55:52.530Z,420
2018-11-02T10:56:59.464Z,421
2018-11-02T10:58:06.405Z,419
2018-11-02T10:59:13.621Z,417
2018-11-02T11:00:20.829Z,420
2018-11-02T11:01:28.074Z,418
2018-11-02T11:02:35.500Z,420
2018-11-02T11:03:42.456Z,420
2018-11-02T11:04:49.398Z,418
2018-11-02T11:05:56.621Z,416
2018-11-02T11:07:03.557Z,415
2018-11-02T11:08:10.519Z,413
2018-11-02T11:09:17.465Z,415
2018-11-02T11:10:24.399Z,419
2018-11-02T11:11:31.518Z,422
2018-11-02T11:12:40.201Z,422
2018-11-02T11:13:49.165Z,423
2018-11-02T11:14:56.716Z,423
2018-11-02T11:16:03.920Z,420
2018-11-02T11:17:11.125Z,415
2018-11-02T11:18:18.058Z,414
2018-11-02T11:19:24.707Z,416
2018-11-02T11:20:31.921Z,417
2018-11-02T11:21:38.852Z,422
2018-11-02T11:22:46.061Z,422
2018-11-02T11:23:52.996Z,418
2018-11-02T11:25:00.207Z,412
2018-11-02T11:26:07.135Z,413
2018-11-02T11:27:14.064Z,412
2018-11-02T11:28:21.270Z,416
2018-11-02T11:29:28.864Z,420
2018-11-02T11:30:36.257Z,423
2018-11-02T11:31:43.191Z,421
2018-11-02T11:32:49.854Z,417
2018-11-02T11:33:56.784Z,420
2018-11-02T11:35:03.707Z,419
2018-11-02T11:36:10.685Z,416
2018-11-02T11:37:17.916Z,411
2018-11-02T11:38:24.577Z,407
2018-11-02T11:39:31.964Z,408
2018-11-02T11:40:39.045Z,406
2018-11-02T11:41:45.721Z,408
2018-11-02T11:42:52.665Z,414
2018-11-02T11:43:59.603Z,416
2018-11-02T11:45:06.269Z,415
2018-11-02T11:46:13.499Z,417
2018-11-02T11:47:20.165Z,415
2018-11-02T11:48:27.721Z,415
2018-11-02T11:49:35.123Z,411
2018-11-02T11:50:41.783Z,410
2018-11-02T11:51:48.995Z,410
2018-11-02T11:52:55.941Z,408
2018-11-02T11:54:03.231Z,407
2018-11-02T11:55:10.495Z,404
2018-11-02T11:56:17.700Z,403
2018-11-02T11:57:24.359Z,404
2018-11-02T11:58:31.025Z,402
2018-11-02T11:59:37.956Z,408
2018-11-02T12:00:44.618Z,408
2018-11-02T12:01:51.273Z,407
2018-11-02T12:02:58.504Z,404
2018-11-02T12:04:05.712Z,402
2018-11-02T12:05:13.016Z,399
2018-11-02T12:06:19.958Z,404
2018-11-02T12:07:26.738Z,405
2018-11-02T12:08:34.051Z,404
2018-11-02T12:09:41.011Z,408
2018-11-02T12:10:47.947Z,410
2018-11-02T12:11:55.178Z,410
2018-11-02T12:13:02.113Z,407
2018-11-02T12:14:09.068Z,411
2018-11-02T12:15:16.279Z,406
2018-11-02T12:16:23.496Z,403
2018-11-02T12:17:30.705Z,403
2018-11-02T12:18:37.927Z,400
2018-11-02T12:19:44.857Z,402
2018-11-02T12:20:51.514Z,406
2018-11-02T12:21:58.771Z,408
2018-11-02T12:23:05.797Z,408
2018-11-02T12:24:13.006Z,412
2018-11-02T12:25:20.265Z,415
2018-11-02T12:26:27.476Z,421
2018-11-02T12:27:34.683Z,425
2018-11-02T12:28:42.201Z,429
2018-11-02T12:29:49.156Z,432
2018-11-02T12:30:56.363Z,419
2018-11-02T12:32:03.012Z,411
2018-11-02T12:33:10.220Z,405
2018-11-02T12:34:17.440Z,403
2018-11-02T12:35:24.649Z,403
2018-11-02T12:36:32.988Z,407
2018-11-02T12:37:40.864Z,409
2018-11-02T12:38:48.929Z,410
2018-11-02T12:39:56.555Z,407
2018-11-02T12:41:03.497Z,407
2018-11-02T12:42:10.433Z,403
2018-11-02T12:43:17.815Z,408
2018-11-02T12:44:25.263Z,411
2018-11-02T12:45:32.507Z,406
2018-11-02T12:46:39.721Z,407
2018-11-02T12:47:47.293Z,400
2018-11-02T12:48:55.760Z,403
2018-11-02T12:50:03.927Z,409
2018-11-02T12:51:11.078Z,419
2018-11-02T12:52:18.013Z,419
2018-11-02T12:53:24.950Z,419
2018-11-02T12:54:32.161Z,417
2018-11-02T12:55:38.809Z,419
2018-11-02T12:56:46.019Z,425
2018-11-02T12:57:53.230Z,427
2018-11-02T12:59:00.456Z,426
2018-11-02T13:00:07.672Z,416
2018-11-02T13:01:14.619Z,412
2018-11-02T13:02:21.554Z,406
2018-11-02T13:03:28.762Z,405
2018-11-02T13:04:35.977Z,407
2018-11-02T13:05:42.919Z,413
2018-11-02T13:06:50.133Z,414
2018-11-02T13:07:57.083Z,418
2018-11-02T13:09:04.527Z,415
2018-11-02T13:10:11.758Z,411
2018-11-02T13:11:18.977Z,408
2018-11-02T13:12:25.917Z,405
2018-11-02T13:13:32.888Z,404
2018-11-02T13:14:40.104Z,406
2018-11-02T13:15:47.649Z,402
2018-11-02T13:16:54.806Z,403
2018-11-02T13:18:02.186Z,409
2018-11-02T13:19:09.415Z,416
2018-11-02T13:20:16.884Z,421
2018-11-02T13:21:23.631Z,420
2018-11-02T13:22:30.565Z,417
2018-11-02T13:23:37.780Z,419
2018-11-02T13:24:44.815Z,414
2018-11-02T13:25:51.937Z,408
2018-11-02T13:26:58.737Z,402
2018-11-02T13:28:05.684Z,393
2018-11-02T13:29:12.915Z,392
2018-11-02T13:30:20.037Z,397
2018-11-02T13:31:28.253Z,402
2018-11-02T13:32:35.480Z,404
2018-11-02T13:33:42.406Z,406
2018-11-02T13:34:49.620Z,401
2018-11-02T13:35:56.556Z,402
2018-11-02T13:37:03.803Z,407
2018-11-02T13:38:11.262Z,403
2018-11-02T13:39:18.209Z,400
2018-11-02T13:40:25.148Z,395
2018-11-02T13:41:32.356Z,393
2018-11-02T13:42:39.298Z,389
2018-11-02T13:43:46.995Z,390
2018-11-02T13:44:54.150Z,391
2018-11-02T13:46:01.104Z,392
2018-11-02T13:47:07.778Z,392
2018-11-02T13:48:14.985Z,396
2018-11-02T13:49:21.929Z,408
2018-11-02T13:50:29.257Z,417
2018-11-02T13:51:36.293Z,425
2018-11-02T13:52:42.966Z,431
2018-11-02T13:53:49.636Z,432
2018-11-02T13:54:56.855Z,430
2018-11-02T13:56:03.803Z,427
2018-11-02T13:57:10.752Z,424
2018-11-02T13:58:17.972Z,426
2018-11-02T13:59:25.265Z,425
2018-11-02T14:00:31.998Z,425
2018-11-02T14:01:38.665Z,425
2018-11-02T14:02:45.328Z,427
2018-11-02T14:03:52.541Z,424
2018-11-02T14:04:59.759Z,426
2018-11-02T14:06:06.718Z,426
2018-11-02T14:07:13.109Z,425
2018-11-02T14:08:20.054Z,422
2018-11-02T14:09:27.268Z,422
2018-11-02T14:10:33.927Z,422
2018-11-02T14:11:41.323Z,417
2018-11-02T14:12:48.676Z,414
2018-11-02T14:13:55.881Z,414
2018-11-02T14:15:02.540Z,417
2018-11-02T14:16:09.469Z,425
2018-11-02T14:17:16.408Z,427
2018-11-02T14:18:23.560Z,428
2018-11-02T14:19:30.688Z,430
2018-11-02T14:20:37.356Z,430
2018-11-02T14:21:44.575Z,431
2018-11-02T14:22:51.786Z,427
2018-11-02T14:23:59.005Z,424
2018-11-02T14:25:06.212Z,420
2018-11-02T14:26:13.144Z,422
2018-11-02T14:27:20.378Z,424
2018-11-02T14:28:27.591Z,425
2018-11-02T14:29:35.356Z,425
2018-11-02T14:30:42.307Z,424
2018-11-02T14:31:49.524Z,418
2018-11-02T14:32:56.468Z,410
2018-11-02T14:34:03.687Z,402
2018-11-02T14:35:10.923Z,399
2018-11-02T14:36:18.129Z,396
2018-11-02T14:37:26.071Z,393
2018-11-02T14:38:34.324Z,393
2018-11-02T14:39:42.466Z,394
2018-11-02T14:40:50.556Z,395
2018-11-02T14:41:57.940Z,400
2018-11-02T14:43:05.154Z,402
2018-11-02T14:44:12.136Z,403
2018-11-02T14:45:18.799Z,404
2018-11-02T14:46:25.639Z,408
2018-11-02T14:47:32.959Z,409
2018-11-02T14:48:39.886Z,410
2018-11-02T14:49:46.561Z,415
2018-11-02T14:50:53.772Z,415
2018-11-02T14:52:00.718Z,418
2018-11-02T14:53:07.659Z,421
2018-11-02T14:54:14.599Z,424
2018-11-02T14:55:21.291Z,426
2018-11-02T14:56:28.509Z,427
2018-11-02T14:57:35.443Z,428
2018-11-02T14:58:42.492Z,426
2018-11-02T14:59:49.667Z,425
2018-11-02T15:00:57.126Z,429
2018-11-02T15:02:04.062Z,430
2018-11-02T15:03:11.008Z,432
2018-11-02T15:04:18.223Z,435
2018-11-02T15:05:25.441Z,436
2018-11-02T15:06:32.408Z,436
2018-11-02T15:07:39.622Z,436
2018-11-02T15:08:46.290Z,436
2018-11-02T15:09:53.218Z,437
2018-11-02T15:10:59.616Z,438
2018-11-02T15:12:06.827Z,439
2018-11-02T15:13:13.756Z,440
2018-11-02T15:14:20.970Z,440
2018-11-02T15:15:28.182Z,440
2018-11-02T15:16:35.112Z,440
2018-11-02T15:17:42.059Z,441
2018-11-02T15:18:49.009Z,441
2018-11-02T15:19:56.222Z,442
2018-11-02T15:21:03.472Z,443
2018-11-02T15:22:10.503Z,443
2018-11-02T15:23:17.187Z,444
2018-11-02T15:24:24.400Z,444